Time;durP1;ratioP1;P1;durP2;ratioP2;P2;SDS_P1;SDS_P2;PMS_P1;PMS_P2;Temp;Humidity;BMP_temperature;BMP_pressure;BME280_temperature;BME280_humidity;BME280_pressure;Samples;Min_cycle;Max_cycle;Signal;HPM_P1;HPM_P2
2022/01/21 07:27:02;;;;;;;;;7.33;5.00;;;;;;;;5349891;22;46088;-89
2022/01/21 07:29:27;;;;;;;;;6.25;6.25;;;;;;;;4997152;28;45499;-94
2022/01/21 07:31:54;;;;;;;;;9.00;9.00;;;;;;;;4997971;28;45815;-95
2022/01/21 07:34:20;;;;;;;;;10.50;6.25;;;;;;;;4998481;28;47330;-93
2022/01/21 07:36:45;;;;;;;;;7.67;7.67;;;;;;;;5004155;28;47252;-92
2022/01/21 07:39:11;;;;;;;;;11.67;6.00;;;;;;;;5005300;28;45331;-92
2022/01/21 07:41:36;;;;;;;;;11.00;9.75;;;;;;;;5015817;28;45205;-88
2022/01/21 07:44:01;;;;;;;;;11.33;9.67;;;;;;;;5002907;28;48510;-91
2022/01/21 07:46:26;;;;;;;;;10.33;6.67;;;;;;;;5008270;28;45396;-90
2022/01/21 07:48:51;;;;;;;;;12.33;10.33;;;;;;;;5005169;28;45349;-94
2022/01/21 07:51:17;;;;;;;;;17.33;9.67;;;;;;;;4995714;28;45448;-93
2022/01/21 07:53:42;;;;;;;;;10.00;10.00;;;;;;;;4995213;28;48297;-95
2022/01/21 07:56:07;;;;;;;;;10.67;9.00;;;;;;;;4995784;28;45548;-93
2022/01/21 07:58:33;;;;;;;;;9.67;8.33;;;;;;;;4991288;28;45366;-94
2022/01/21 08:00:58;;;;;;;;;9.00;7.67;;;;;;;;4991419;28;45524;-94
2022/01/21 08:03:24;;;;;;;;;9.67;9.67;;;;;;;;4997710;28;46510;-92
2022/01/21 08:05:51;;;;;;;;;9.67;6.00;;;;;;;;5000859;28;45381;-93
2022/01/21 08:08:16;;;;;;;;;10.00;9.00;;;;;;;;4997829;28;45395;-95
2022/01/21 08:10:42;;;;;;;;;10.00;10.00;;;;;;;;5006719;28;45275;-95
2022/01/21 08:13:08;;;;;;;;;6.33;6.33;;;;;;;;5015329;28;45632;-95
2022/01/21 08:15:43;;;;;;;;;13.00;11.00;;;;;;;;5026518;28;45340;-95
2022/01/21 08:18:09;;;;;;;;;12.50;11.00;;;;;;;;5013532;28;45282;-96
2022/01/21 08:20:37;;;;;;;;;16.00;9.33;;;;;;;;4992339;28;45297;-96
2022/01/21 08:23:06;;;;;;;;;15.00;10.50;;;;;;;;5014568;28;45453;-96
2022/01/21 08:25:31;;;;;;;;;13.25;11.50;;;;;;;;5015036;28;45930;-96
2022/01/21 08:27:59;;;;;;;;;16.00;12.50;;;;;;;;5037452;28;45182;-95
2022/01/21 08:30:25;;;;;;;;;16.50;11.00;;;;;;;;5041544;28;44881;-95
2022/01/21 08:32:51;;;;;;;;;14.75;11.25;;;;;;;;5042740;28;46100;-96
2022/01/21 08:35:16;;;;;;;;;18.25;11.75;;;;;;;;5033118;28;45318;-96
2022/01/21 08:37:41;;;;;;;;;17.67;14.33;;;;;;;;5024649;28;45326;-96
2022/01/21 08:40:07;;;;;;;;;15.75;12.75;;;;;;;;5010200;28;45336;-95
2022/01/21 08:42:33;;;;;;;;;12.33;9.00;;;;;;;;5012575;28;47395;-93
2022/01/21 08:44:58;;;;;;;;;13.50;12.00;;;;;;;;5024829;28;46028;-96
2022/01/21 08:47:23;;;;;;;;;11.75;11.00;;;;;;;;5007094;28;45422;-95
2022/01/21 08:49:49;;;;;;;;;18.75;14.00;;;;;;;;5019631;28;45289;-95
2022/01/21 08:52:19;;;;;;;;;9.75;9.75;;;;;;;;5024078;28;47864;-95
2022/01/21 08:54:45;;;;;;;;;17.25;17.25;;;;;;;;5026575;28;45291;-95
2022/01/21 08:57:11;;;;;;;;;18.75;14.50;;;;;;;;5005181;28;45371;-96
2022/01/21 08:59:36;;;;;;;;;18.00;14.25;;;;;;;;5024894;28;45215;-96
2022/01/21 09:02:01;;;;;;;;;21.75;15.25;;;;;;;;5021895;28;47036;-96
2022/01/21 09:04:27;;;;;;;;;15.00;13.75;;;;;;;;5023903;28;44842;-95
2022/01/21 09:06:52;;;;;;;;;15.50;13.00;;;;;;;;5021725;28;45377;-95
2022/01/21 09:09:17;;;;;;;;;16.50;15.75;;;;;;;;5023536;28;45510;-95
2022/01/21 09:11:43;;;;;;;;;18.75;12.25;;;;;;;;5028741;28;47070;-95
2022/01/21 09:14:08;;;;;;;;;11.25;10.50;;;;;;;;5028610;28;45266;-95
2022/01/21 09:16:34;;;;;;;;;18.00;12.75;;;;;;;;5024342;28;45313;-95
2022/01/21 09:19:02;;;;;;;;;6.50;3.50;;;;;;;;5024723;28;45345;-95
2022/01/21 09:21:29;;;;;;;;;14.50;13.75;;;;;;;;5026202;28;47798;-95
2022/01/21 09:23:54;;;;;;;;;14.00;13.75;;;;;;;;5011547;28;45736;-94
2022/01/21 09:26:21;;;;;;;;;20.25;15.50;;;;;;;;5025597;28;45452;-95
2022/01/21 09:28:47;;;;;;;;;8.00;4.75;;;;;;;;4991704;28;45530;-95
2022/01/21 09:31:13;;;;;;;;;23.75;16.50;;;;;;;;4996409;28;47129;-95
2022/01/21 09:33:39;;;;;;;;;16.25;15.75;;;;;;;;4981517;28;45517;-95
2022/01/21 09:36:05;;;;;;;;;18.00;15.00;;;;;;;;4992412;28;45291;-95
2022/01/21 09:38:31;;;;;;;;;17.25;16.50;;;;;;;;5013376;28;45596;-95
2022/01/21 09:40:57;;;;;;;;;17.67;13.00;;;;;;;;4998606;28;46805;-95
2022/01/21 09:43:24;;;;;;;;;15.67;14.00;;;;;;;;5012210;28;44987;-95
2022/01/21 09:45:52;;;;;;;;;19.33;15.00;;;;;;;;5021540;28;45275;-95
2022/01/21 09:48:27;;;;;;;;;18.75;15.50;;;;;;;;5002225;28;45446;-95
2022/01/21 09:50:57;;;;;;;;;23.00;17.25;;;;;;;;5035644;28;45684;-96
2022/01/21 09:53:29;;;;;;;;;23.00;19.50;;;;;;;;5001690;28;44807;-95
2022/01/21 09:55:57;;;;;;;;;21.00;18.67;;;;;;;;5002236;28;45292;-95
2022/01/21 09:58:22;;;;;;;;;16.50;15.50;;;;;;;;4995968;28;45410;-95
2022/01/21 10:00:47;;;;;;;;;23.50;18.00;;;;;;;;5003179;28;48572;-95
2022/01/21 10:03:13;;;;;;;;;20.75;17.00;;;;;;;;4998272;28;45255;-94
2022/01/21 10:05:38;;;;;;;;;24.00;18.75;;;;;;;;5012380;28;44799;-95
2022/01/21 10:08:05;;;;;;;;;20.25;18.75;;;;;;;;5013612;28;44882;-95
2022/01/21 10:10:31;;;;;;;;;16.67;14.33;;;;;;;;5005459;28;46153;-95
2022/01/21 10:13:02;;;;;;;;;16.25;15.50;;;;;;;;5015618;28;45267;-95
2022/01/21 10:15:30;;;;;;;;;18.50;13.25;;;;;;;;5034241;28;45401;-95
2022/01/21 10:17:59;;;;;;;;;18.50;13.75;;;;;;;;4999920;28;45429;-95
2022/01/21 10:20:25;;;;;;;;;15.00;13.67;;;;;;;;5001532;28;47359;-96
2022/01/21 10:23:09;;;;;;;;;19.00;17.33;;;;;;;;5004158;28;45732;-95
2022/01/21 10:25:35;;;;;;;;;12.00;9.00;;;;;;;;5004706;28;45328;-96
2022/01/21 10:28:07;;;;;;;;;17.00;15.33;;;;;;;;5027660;28;45591;-96
2022/01/21 10:30:33;;;;;;;;;24.25;20.50;;;;;;;;5020027;28;48601;-96
2022/01/21 10:32:58;;;;;;;;;21.00;20.00;;;;;;;;5014707;28;45607;-96
2022/01/21 10:35:32;;;;;;;;;29.00;23.00;;;;;;;;5021973;28;45406;-96
2022/01/21 10:38:17;;;;;;;;;22.00;19.50;;;;;;;;5025024;28;45377;-95
2022/01/21 10:40:42;;;;;;;;;22.25;20.25;;;;;;;;5011448;28;47256;-95
2022/01/21 10:43:12;;;;;;;;;20.25;20.00;;;;;;;;5018406;28;45222;-96
2022/01/21 10:45:54;;;;;;;;;19.67;19.33;;;;;;;;5018830;28;45281;-95
2022/01/21 10:48:19;;;;;;;;;20.00;19.00;;;;;;;;5010136;28;45373;-95
2022/01/21 10:50:44;;;;;;;;;22.00;17.00;;;;;;;;5024441;28;47623;-95
2022/01/21 10:53:25;;;;;;;;;23.25;20.50;;;;;;;;5020630;28;45790;-95
2022/01/21 10:55:51;;;;;;;;;20.50;18.00;;;;;;;;5021938;28;45482;-96
2022/01/21 10:58:18;;;;;;;;;26.00;19.50;;;;;;;;5024839;28;45214;-95
2022/01/21 11:00:57;;;;;;;;;21.50;18.00;;;;;;;;5027195;28;48374;-96
2022/01/21 11:03:23;;;;;;;;;23.00;20.50;;;;;;;;5026048;28;45281;-95
2022/01/21 11:05:53;;;;;;;;;19.25;18.50;;;;;;;;5028243;28;44882;-95
2022/01/21 11:08:23;;;;;;;;;25.33;16.67;;;;;;;;5030433;28;45517;-95
2022/01/21 11:10:49;;;;;;;;;25.50;21.25;;;;;;;;5029087;28;46825;-96
2022/01/21 11:13:21;;;;;;;;;24.33;19.00;;;;;;;;5029520;28;45312;-96
2022/01/21 11:15:48;;;;;;;;;20.50;17.75;;;;;;;;5019749;28;45427;-96
2022/01/21 11:18:16;;;;;;;;;28.00;22.25;;;;;;;;5026309;28;44924;-96
2022/01/21 11:20:43;;;;;;;;;27.25;20.75;;;;;;;;5013367;28;47705;-96
2022/01/21 11:23:09;;;;;;;;;28.00;24.75;;;;;;;;5027219;28;45566;-96
2022/01/21 11:25:44;;;;;;;;;24.33;19.67;;;;;;;;5026948;28;45404;-95
2022/01/21 11:28:10;;;;;;;;;24.25;21.75;;;;;;;;5008232;28;45320;-96
2022/01/21 11:30:36;;;;;;;;;23.50;21.75;;;;;;;;5028627;28;47051;-96
2022/01/21 11:33:01;;;;;;;;;42.00;38.00;;;;;;;;5027222;28;45518;-96
2022/01/21 11:35:27;;;;;;;;;22.00;20.75;;;;;;;;5023412;28;45449;-96
2022/01/21 11:37:53;;;;;;;;;16.67;14.33;;;;;;;;5035432;28;45289;-95
2022/01/21 11:40:18;;;;;;;;;22.33;15.00;;;;;;;;5032678;28;47131;-95
2022/01/21 11:42:44;;;;;;;;;18.00;16.00;;;;;;;;5045446;28;45328;-96
2022/01/21 11:48:50;;;;;;;;;26.00;22.50;;;;;;;;5033998;28;45373;-96
2022/01/21 11:50:56;;;;;;;;;14.67;13.67;;;;;;;;5029201;28;45369;-96
2022/01/21 11:53:48;;;;;;;;;22.00;14.00;;;;;;;;5006734;28;45285;-96
2022/01/21 11:56:32;;;;;;;;;19.33;17.67;;;;;;;;5000771;28;45433;-92
2022/01/21 11:59:23;;;;;;;;;23.33;18.00;;;;;;;;5017494;28;45562;-93
2022/01/21 12:01:48;;;;;;;;;25.00;19.33;;;;;;;;5015386;28;48627;-92
2022/01/21 12:04:15;;;;;;;;;20.67;14.67;;;;;;;;5011759;28;45310;-92
2022/01/21 12:06:40;;;;;;;;;16.00;15.00;;;;;;;;5010041;28;45512;-92
2022/01/21 12:09:08;;;;;;;;;19.00;14.33;;;;;;;;5015895;28;45384;-93
2022/01/21 12:11:37;;;;;;;;;14.67;12.67;;;;;;;;5017729;28;47111;-93
2022/01/21 12:14:05;;;;;;;;;13.00;12.67;;;;;;;;4999691;28;45353;-93
2022/01/21 12:17:12;;;;;;;;;21.00;13.67;;;;;;;;5009613;28;45711;-93
2022/01/21 12:19:40;;;;;;;;;13.33;12.00;;;;;;;;5007063;28;45439;-94
2022/01/21 12:22:11;;;;;;;;;13.67;11.33;;;;;;;;5014414;28;48139;-94
2022/01/21 12:24:47;;;;;;;;;11.67;11.67;;;;;;;;5008575;28;45306;-94
2022/01/21 12:27:13;;;;;;;;;14.00;13.00;;;;;;;;5022317;28;45273;-93
2022/01/21 12:29:39;;;;;;;;;18.00;12.00;;;;;;;;5025391;28;45402;-94
2022/01/21 12:32:13;;;;;;;;;15.00;11.33;;;;;;;;5022993;28;47347;-91
2022/01/21 12:34:57;;;;;;;;;17.00;14.67;;;;;;;;5024412;28;45459;-93
2022/01/21 12:37:26;;;;;;;;;18.00;14.33;;;;;;;;5016667;28;45495;-93
2022/01/21 12:39:52;;;;;;;;;16.67;11.00;;;;;;;;5017340;28;45527;-94
2022/01/21 12:42:17;;;;;;;;;15.00;15.00;;;;;;;;5016179;28;48181;-93
2022/01/21 12:44:42;;;;;;;;;17.75;16.75;;;;;;;;5022757;28;45367;-94
2022/01/21 12:47:46;;;;;;;;;16.67;15.67;;;;;;;;5001018;28;45491;-94
2022/01/21 12:50:38;;;;;;;;;15.67;14.67;;;;;;;;4952024;28;45570;-94
2022/01/21 12:53:19;;;;;;;;;17.00;12.00;;;;;;;;4945216;28;46448;-94
2022/01/21 12:55:58;;;;;;;;;17.00;11.67;;;;;;;;4954673;28;45423;-94
2022/01/21 12:58:26;;;;;;;;;17.33;15.00;;;;;;;;4917142;28;45531;-93
2022/01/21 13:01:02;;;;;;;;;30.00;20.67;;;;;;;;4962565;28;45498;-94
2022/01/21 13:03:46;;;;;;;;;17.33;14.33;;;;;;;;4963884;28;47195;-93
2022/01/21 13:06:23;;;;;;;;;14.67;10.33;;;;;;;;4963592;28;45389;-94
2022/01/21 13:09:01;;;;;;;;;12.00;12.00;;;;;;;;4949962;28;45326;-95
2022/01/21 13:11:28;;;;;;;;;10.33;7.00;;;;;;;;4945685;28;45269;-94
2022/01/21 13:14:45;;;;;;;;;9.33;7.33;;;;;;;;4942936;28;47216;-94
2022/01/21 13:17:08;;;;;;;;;13.67;11.00;;;;;;;;4958767;28;45372;-93
2022/01/21 13:19:45;;;;;;;;;14.33;13.67;;;;;;;;4970261;28;45559;-94
2022/01/21 13:22:30;;;;;;;;;19.00;13.33;;;;;;;;5028531;28;45576;-93
2022/01/21 13:25:01;;;;;;;;;28.00;23.00;;;;;;;;5017953;28;47315;-94
2022/01/21 13:27:27;;;;;;;;;19.33;14.67;;;;;;;;5028786;28;46035;-94
2022/01/21 13:29:57;;;;;;;;;18.67;16.00;;;;;;;;5016132;28;44860;-94
2022/01/21 13:32:23;;;;;;;;;32.50;28.50;;;;;;;;5042078;28;44934;-94
2022/01/21 13:34:48;;;;;;;;;19.33;16.33;;;;;;;;5025540;28;47143;-94
2022/01/21 13:37:18;;;;;;;;;20.00;18.00;;;;;;;;5021451;28;45389;-94
2022/01/21 13:39:44;;;;;;;;;22.67;18.00;;;;;;;;5019361;28;45799;-93
2022/01/21 13:42:11;;;;;;;;;25.25;21.75;;;;;;;;5011901;28;45369;-95
2022/01/21 13:44:42;;;;;;;;;18.33;16.00;;;;;;;;5008753;28;47440;-95
2022/01/21 13:47:27;;;;;;;;;22.00;18.00;;;;;;;;5008483;28;45538;-95
2022/01/21 13:49:52;;;;;;;;;22.67;16.00;;;;;;;;5022797;28;45185;-95
2022/01/21 13:52:17;;;;;;;;;25.75;20.75;;;;;;;;5025977;28;45515;-95
2022/01/21 13:54:44;;;;;;;;;31.67;21.33;;;;;;;;5012633;28;46976;-94
2022/01/21 13:57:09;;;;;;;;;24.00;20.33;;;;;;;;5009959;28;45359;-94
2022/01/21 13:59:46;;;;;;;;;18.00;16.25;;;;;;;;5027163;28;45314;-94
2022/01/21 14:02:15;;;;;;;;;19.00;14.33;;;;;;;;5026787;28;45645;-94
2022/01/21 14:04:53;;;;;;;;;20.33;13.00;;;;;;;;5013973;28;47424;-94
2022/01/21 14:07:29;;;;;;;;;15.67;14.00;;;;;;;;5025450;28;45334;-94
2022/01/21 14:09:55;;;;;;;;;18.33;14.33;;;;;;;;5030396;28;45364;-94
2022/01/21 14:12:21;;;;;;;;;20.33;18.33;;;;;;;;5032619;28;45246;-94
2022/01/21 14:14:47;;;;;;;;;19.33;14.00;;;;;;;;5029514;28;47186;-95
2022/01/21 14:17:13;;;;;;;;;11.67;11.67;;;;;;;;5016276;28;45367;-94
2022/01/21 14:19:39;;;;;;;;;20.00;14.00;;;;;;;;5023071;28;45564;-93
2022/01/21 14:22:07;;;;;;;;;27.25;21.00;;;;;;;;5024862;28;45231;-93
2022/01/21 14:24:38;;;;;;;;;23.25;21.75;;;;;;;;5021167;28;47021;-94
2022/01/21 14:27:03;;;;;;;;;13.33;12.67;;;;;;;;5021303;28;46088;-94
2022/01/21 14:29:29;;;;;;;;;13.33;9.67;;;;;;;;5020686;28;45611;-94
2022/01/21 14:32:01;;;;;;;;;25.75;19.75;;;;;;;;5017340;28;45722;-94
2022/01/21 14:34:27;;;;;;;;;17.00;14.67;;;;;;;;5020759;28;47890;-94
2022/01/21 14:37:09;;;;;;;;;16.00;13.67;;;;;;;;5020816;28;45794;-94
2022/01/21 14:39:37;;;;;;;;;13.00;10.67;;;;;;;;5021290;28;45521;-94
2022/01/21 14:42:03;;;;;;;;;13.33;12.33;;;;;;;;5016698;28;45393;-94
2022/01/21 14:44:37;;;;;;;;;15.67;14.00;;;;;;;;5006977;28;47955;-93
2022/01/21 14:47:23;;;;;;;;;9.67;8.33;;;;;;;;5016590;28;45321;-94
2022/01/21 14:50:02;;;;;;;;;14.33;9.33;;;;;;;;5008690;28;45387;-94
2022/01/21 14:52:51;;;;;;;;;11.67;10.00;;;;;;;;5003668;28;45512;-94
2022/01/21 14:55:19;;;;;;;;;11.00;8.67;;;;;;;;5014312;28;45581;-95
2022/01/21 14:57:48;;;;;;;;;16.00;12.33;;;;;;;;5038981;28;45397;-94
2022/01/21 15:00:20;;;;;;;;;15.33;15.33;;;;;;;;5037710;28;44821;-94
2022/01/21 15:02:45;;;;;;;;;13.33;11.67;;;;;;;;5029521;28;45696;-94
2022/01/21 15:05:14;;;;;;;;;11.33;9.33;;;;;;;;5024611;28;46968;-95
2022/01/21 15:07:41;;;;;;;;;17.67;14.00;;;;;;;;5029917;28;45375;-95
2022/01/21 15:10:33;;;;;;;;;8.33;8.00;;;;;;;;5030598;28;44919;-94
2022/01/21 15:15:45;;;;;;;;;15.00;14.00;;;;;;;;5040696;28;45393;-94
2022/01/21 15:18:13;;;;;;;;;11.00;9.33;;;;;;;;5036858;28;45442;-94
2022/01/21 15:20:38;;;;;;;;;13.00;12.00;;;;;;;;5032217;28;45535;-94
2022/01/21 15:23:05;;;;;;;;;14.67;11.00;;;;;;;;5034468;28;45481;-95
2022/01/21 15:25:31;;;;;;;;;12.67;11.00;;;;;;;;5016809;28;47258;-94
2022/01/21 15:27:56;;;;;;;;;10.67;10.67;;;;;;;;5036587;28;45566;-94
2022/01/21 15:30:23;;;;;;;;;10.00;7.00;;;;;;;;5031423;28;45383;-94
2022/01/21 15:32:48;;;;;;;;;13.00;12.00;;;;;;;;5029567;28;45381;-93
2022/01/21 15:35:14;;;;;;;;;14.00;9.33;;;;;;;;5017301;28;47416;-96
2022/01/21 15:37:39;;;;;;;;;10.67;9.67;;;;;;;;5021477;28;45373;-95
2022/01/21 15:40:04;;;;;;;;;13.67;11.67;;;;;;;;5038577;28;45169;-94
2022/01/21 15:42:30;;;;;;;;;21.75;18.50;;;;;;;;5031711;28;45352;-93
2022/01/21 15:44:57;;;;;;;;;13.00;12.00;;;;;;;;5003617;28;46316;-91
2022/01/21 15:47:23;;;;;;;;;11.33;11.33;;;;;;;;5023794;28;45376;-93
2022/01/21 15:49:48;;;;;;;;;8.67;7.33;;;;;;;;5023008;28;45486;-93
2022/01/21 15:52:13;;;;;;;;;10.00;9.67;;;;;;;;5021773;28;45353;-92
2022/01/21 15:54:40;;;;;;;;;5.33;5.00;;;;;;;;5024168;28;47023;-89
2022/01/21 15:57:05;;;;;;;;;9.33;8.33;;;;;;;;5026658;28;45386;-92
2022/01/21 15:59:32;;;;;;;;;10.33;7.00;;;;;;;;5023293;28;45514;-91
2022/01/21 16:01:57;;;;;;;;;12.67;12.00;;;;;;;;5013782;28;45610;-92
2022/01/21 16:04:22;;;;;;;;;12.67;10.33;;;;;;;;5031214;28;45539;-90
2022/01/21 16:06:47;;;;;;;;;8.33;7.00;;;;;;;;5017623;28;45299;-90
2022/01/21 16:09:13;;;;;;;;;8.33;7.33;;;;;;;;5033780;28;45321;-90
2022/01/21 16:11:39;;;;;;;;;21.00;15.75;;;;;;;;5017014;28;45609;-92
2022/01/21 16:14:05;;;;;;;;;18.75;15.75;;;;;;;;5013006;28;47383;-91
2022/01/21 16:16:30;;;;;;;;;14.75;14.75;;;;;;;;5003840;28;45753;-92
2022/01/21 16:18:55;;;;;;;;;16.50;13.50;;;;;;;;5034444;28;45518;-91
2022/01/21 16:21:21;;;;;;;;;16.00;16.00;;;;;;;;5005135;28;45301;-93
2022/01/21 16:23:48;;;;;;;;;13.25;11.25;;;;;;;;5007460;28;47084;-93
2022/01/21 16:26:14;;;;;;;;;15.75;15.75;;;;;;;;5014932;28;45310;-93
2022/01/21 16:28:39;;;;;;;;;17.67;13.33;;;;;;;;5018063;28;45658;-93
2022/01/21 16:31:04;;;;;;;;;16.00;13.25;;;;;;;;5010007;28;46411;-93
2022/01/21 16:33:29;;;;;;;;;17.50;16.00;;;;;;;;5029199;28;46516;-94
2022/01/21 16:35:55;;;;;;;;;17.00;13.67;;;;;;;;5033126;28;45370;-93
2022/01/21 16:38:20;;;;;;;;;13.67;13.67;;;;;;;;5022921;28;45349;-92
2022/01/21 16:40:47;;;;;;;;;17.25;14.50;;;;;;;;5006679;28;45374;-93
2022/01/21 16:43:12;;;;;;;;;13.67;13.33;;;;;;;;5016576;28;46827;-93
2022/01/21 16:45:37;;;;;;;;;11.00;11.00;;;;;;;;5039685;28;48570;-93
2022/01/21 16:48:03;;;;;;;;;21.00;17.00;;;;;;;;5044357;28;45330;-93
2022/01/21 16:50:29;;;;;;;;;12.67;10.00;;;;;;;;5030735;28;44823;-93
2022/01/21 16:52:55;;;;;;;;;14.67;14.00;;;;;;;;5024290;28;47069;-92
2022/01/21 16:55:20;;;;;;;;;19.67;13.67;;;;;;;;5012018;28;45449;-93
2022/01/21 16:57:52;;;;;;;;;21.25;19.25;;;;;;;;5012137;28;45402;-94
2022/01/21 17:00:17;;;;;;;;;24.25;23.25;;;;;;;;5030520;28;45389;-93
2022/01/21 17:02:43;;;;;;;;;21.00;19.75;;;;;;;;5010668;28;46019;-93
2022/01/21 17:05:08;;;;;;;;;22.75;22.50;;;;;;;;5035039;28;45427;-94
2022/01/21 17:07:33;;;;;;;;;26.25;19.75;;;;;;;;5031443;28;45940;-93
2022/01/21 17:09:58;;;;;;;;;21.00;19.00;;;;;;;;5032908;28;45351;-93
2022/01/21 17:12:24;;;;;;;;;21.00;20.00;;;;;;;;5010635;28;47512;-94
2022/01/21 17:14:49;;;;;;;;;18.67;13.67;;;;;;;;5023676;28;45454;-94
2022/01/21 17:17:15;;;;;;;;;20.33;16.00;;;;;;;;5031987;28;45435;-94
2022/01/21 17:19:41;;;;;;;;;22.00;14.33;;;;;;;;5016759;28;45558;-94
2022/01/21 17:22:08;;;;;;;;;24.50;19.25;;;;;;;;5036663;28;46326;-93
2022/01/21 17:24:33;;;;;;;;;20.67;16.33;;;;;;;;5015098;28;45520;-93
2022/01/21 17:26:59;;;;;;;;;19.33;15.67;;;;;;;;5034827;28;45399;-94
2022/01/21 17:29:24;;;;;;;;;23.33;18.00;;;;;;;;5042017;28;45225;-93
2022/01/21 17:31:49;;;;;;;;;19.00;15.00;;;;;;;;5011783;28;46797;-93
2022/01/21 17:34:15;;;;;;;;;19.33;15.67;;;;;;;;5035196;28;45451;-95
2022/01/21 17:36:40;;;;;;;;;17.00;17.00;;;;;;;;5015251;28;45329;-93
2022/01/21 17:39:06;;;;;;;;;32.25;28.00;;;;;;;;5023907;28;45637;-93
2022/01/21 17:41:31;;;;;;;;;41.00;34.50;;;;;;;;5011944;28;47817;-92
2022/01/21 17:43:58;;;;;;;;;48.00;39.75;;;;;;;;5027977;28;45448;-91
2022/01/21 17:46:24;;;;;;;;;58.00;45.75;;;;;;;;5028207;28;45333;-92
2022/01/21 17:48:49;;;;;;;;;56.00;41.00;;;;;;;;5008430;28;45535;-93
2022/01/21 17:51:16;;;;;;;;;47.25;40.75;;;;;;;;5019267;28;48275;-92
2022/01/21 17:53:41;;;;;;;;;43.00;37.25;;;;;;;;5020364;28;45440;-92
2022/01/21 17:56:06;;;;;;;;;45.75;41.00;;;;;;;;5010385;28;45507;-92
2022/01/21 17:58:32;;;;;;;;;48.00;39.75;;;;;;;;5028502;28;45607;-92
2022/01/21 18:01:00;;;;;;;;;46.25;40.50;;;;;;;;5028432;28;46451;-91
2022/01/21 18:03:25;;;;;;;;;53.25;42.50;;;;;;;;5015934;28;45439;-92
2022/01/21 18:05:50;;;;;;;;;49.25;41.50;;;;;;;;5020696;28;45512;-92
2022/01/21 18:08:15;;;;;;;;;47.00;38.75;;;;;;;;5020214;28;45455;-92
2022/01/21 18:10:51;;;;;;;;;55.75;39.75;;;;;;;;5036409;28;45751;-93
2022/01/21 18:13:20;;;;;;;;;52.75;38.75;;;;;;;;5035919;28;45262;-94
2022/01/21 18:15:48;;;;;;;;;45.25;37.75;;;;;;;;5015836;28;45254;-92
2022/01/21 18:18:13;;;;;;;;;58.25;43.00;;;;;;;;5030135;28;45322;-92
2022/01/21 18:20:38;;;;;;;;;54.25;41.25;;;;;;;;5027620;28;46348;-93
2022/01/21 18:23:04;;;;;;;;;62.50;48.00;;;;;;;;5019835;28;45174;-93
2022/01/21 18:25:29;;;;;;;;;58.50;46.75;;;;;;;;5028283;28;45485;-93
2022/01/21 18:27:54;;;;;;;;;58.75;46.50;;;;;;;;5023661;28;45612;-93
2022/01/21 18:30:21;;;;;;;;;56.50;47.00;;;;;;;;5020510;28;48266;-93
2022/01/21 18:32:46;;;;;;;;;57.00;47.25;;;;;;;;5032857;28;46518;-95
2022/01/21 18:35:12;;;;;;;;;59.50;45.50;;;;;;;;5016314;28;45250;-93
2022/01/21 18:37:37;;;;;;;;;64.25;49.75;;;;;;;;5026293;28;45503;-93
2022/01/21 18:40:02;;;;;;;;;54.00;43.25;;;;;;;;5029670;28;48272;-95
2022/01/21 18:42:32;;;;;;;;;63.00;48.50;;;;;;;;5030988;28;45498;-95
2022/01/21 18:45:13;;;;;;;;;63.25;51.75;;;;;;;;5015555;28;46297;-94
2022/01/21 18:47:42;;;;;;;;;55.00;46.25;;;;;;;;5020726;28;45426;-93
2022/01/21 18:50:09;;;;;;;;;64.50;50.00;;;;;;;;5042065;28;45436;-94
2022/01/21 18:52:35;;;;;;;;;62.25;48.75;;;;;;;;5033510;28;45333;-93
2022/01/21 18:55:00;;;;;;;;;63.00;49.75;;;;;;;;5033015;28;45325;-94
2022/01/21 18:57:25;;;;;;;;;58.25;49.25;;;;;;;;5031179;28;45355;-93
2022/01/21 18:59:51;;;;;;;;;58.00;45.50;;;;;;;;5010512;28;47040;-94
2022/01/21 19:02:20;;;;;;;;;62.25;49.75;;;;;;;;5026103;28;45472;-92
2022/01/21 19:04:45;;;;;;;;;60.00;48.75;;;;;;;;5026105;28;45546;-92
2022/01/21 19:07:10;;;;;;;;;61.75;48.00;;;;;;;;5015994;28;45261;-92
2022/01/21 19:09:36;;;;;;;;;59.00;48.00;;;;;;;;5017947;28;46955;-93
2022/01/21 19:12:01;;;;;;;;;64.00;50.25;;;;;;;;5024135;28;45325;-95
2022/01/21 19:14:27;;;;;;;;;71.00;52.00;;;;;;;;5025903;28;44960;-94
2022/01/21 19:16:52;;;;;;;;;61.25;50.50;;;;;;;;5024834;28;45947;-92
2022/01/21 19:19:18;;;;;;;;;63.00;50.75;;;;;;;;5007129;28;47486;-93
2022/01/21 19:21:50;;;;;;;;;60.00;47.50;;;;;;;;5017429;28;45286;-95
2022/01/21 19:24:25;;;;;;;;;68.00;52.50;;;;;;;;5014999;28;45382;-95
2022/01/21 19:29:25;;;;;;;;;72.25;56.00;;;;;;;;5011840;28;46223;-96
2022/01/21 19:31:50;;;;;;;;;70.00;54.00;;;;;;;;5002256;28;45737;-96
2022/01/21 19:34:15;;;;;;;;;68.00;55.75;;;;;;;;5002445;28;45388;-94
2022/01/21 19:36:43;;;;;;;;;65.25;52.00;;;;;;;;5001308;28;45323;-96
2022/01/21 19:39:08;;;;;;;;;64.75;50.00;;;;;;;;5019397;28;46978;-94
2022/01/21 19:41:34;;;;;;;;;64.75;53.75;;;;;;;;4995436;28;45445;-94
2022/01/21 19:43:59;;;;;;;;;69.50;52.75;;;;;;;;4998693;28;45740;-96
2022/01/21 19:46:27;;;;;;;;;70.50;54.00;;;;;;;;4992545;28;45464;-96
2022/01/21 19:48:52;;;;;;;;;63.25;51.75;;;;;;;;4999724;28;46939;-92
2022/01/21 19:51:19;;;;;;;;;68.25;51.50;;;;;;;;5021435;28;45558;-93
2022/01/21 19:53:44;;;;;;;;;62.25;50.50;;;;;;;;5023240;28;45384;-94
